Blissville, Massachusetts
Current Conditions -  °F | °C
As of 12:52 PM on Friday 24 Oct 2014 (Local Time) from KORE Reporting Station
Overcast Overcast  
Wind Chill: 45°   Ceiling: 1900
Heat Index: 49°   Visibility: 10mi
Dew Point: 42°   Wind: 9mph
Humidity: 77%   Direction: 340°NNW
Pressure: 29.74"   Gusts: NA
Location:  42.614°N, 72.3011°W
Report Text: KORE 241652Z AUTO 34008KT 10SM OVC019 09/06 A2974 RMK AO2 SLP073 T00940056
Loading
Personal Weather Stations






























Interactive Weather Map
Tropical Storm Tracking
New forecast layout! Learn more

10-Day Weather Forecast

Advertisements
Track Severe Weather on mobile